Time;durP1;ratioP1;P1;durP2;ratioP2;P2;SDS_P1;SDS_P2;PMS_P1;PMS_P2;Temp;Humidity;BMP_temperature;BMP_pressure;BME280_temperature;BME280_humidity;BME280_pressure;Samples;Min_cycle;Max_cycle;Signal;HPM_P1;HPM_P2
2023/09/02 00:02:10;;;;;;;;;;;;;;;;;;4949187;28;20286;-90
2023/09/02 00:04:36;;;;;;;;;;;;;;;;;;4963074;28;20339;-90
2023/09/02 00:07:02;;;;;;;;;;;;;;;;;;4945944;28;19984;-91
2023/09/02 00:09:28;;;;;;;;;;;;;;;;;;4955598;28;19997;-91
2023/09/02 00:11:53;;;;;;;;;;;;;;;;;;4938743;28;19931;-90
2023/09/02 00:14:19;;;;;;;;;;;;;;;;;;4943887;28;19930;-91
2023/09/02 00:16:51;;;;;;;;;;;;;;;;;;4957984;28;19969;-91
2023/09/02 00:19:17;;;;;;;;;;;;;;;;;;4943606;28;19926;-90
2023/09/02 00:21:43;;;;;;;;;;;;;;;;;;4944846;28;20302;-90
2023/09/02 00:24:09;;;;;;;;;;;;;;;;;;4945258;28;20020;-90
2023/09/02 00:26:35;;;;;;;;;;;;;;;;;;4955208;28;19926;-89
2023/09/02 00:29:01;;;;;;;;;;;;;;;;;;4961628;28;19926;-90
2023/09/02 00:31:27;;;;;;;;;;;;;;;;;;4964358;28;20705;-90
2023/09/02 00:33:53;;;;;;;;;;;;;;;;;;4947341;28;19937;-90
2023/09/02 00:36:19;;;;;;;;;;;;;;;;;;4959434;28;19926;-90
2023/09/02 00:38:45;;;;;;;;;;;;;;;;;;4960616;28;20428;-91
2023/09/02 00:41:11;;;;;;;;;;;;;;;;;;4947352;28;20330;-91
2023/09/02 00:43:37;;;;;;;;;;;;;;;;;;4958545;28;19927;-91
2023/09/02 00:46:06;;;;;;;;;;;;;;;;;;4954602;28;20398;-90
2023/09/02 00:48:32;;;;;;;;;;;;;;;;;;4960452;28;19926;-91
2023/09/02 00:50:58;;;;;;;;;;;;;;;;;;4943434;28;19977;-91
2023/09/02 00:53:24;;;;;;;;;;;;;;;;;;4967965;28;19937;-90
2023/09/02 00:55:50;;;;;;;;;;;;;;;;;;4953359;28;19930;-90
2023/09/02 00:58:16;;;;;;;;;;;;;;;;;;4955579;28;19954;-92
2023/09/02 01:00:42;;;;;;;;;;;;;;;;;;4950510;28;19946;-90
2023/09/02 01:03:08;;;;;;;;;;;;;;;;;;4953645;28;19930;-91
2023/09/02 01:05:35;;;;;;;;;;;;;;;;;;4956979;28;19934;-91
2023/09/02 01:08:01;;;;;;;;;;;;;;;;;;4968423;28;19973;-91
2023/09/02 01:10:27;;;;;;;;;;;;;;;;;;4953616;28;19980;-91
2023/09/02 01:12:53;;;;;;;;;;;;;;;;;;4950928;28;20474;-90
2023/09/02 01:15:19;;;;;;;;;;;;;;;;;;4960633;28;19944;-91
2023/09/02 01:17:44;;;;;;;;;;;;;;;;;;4967336;28;19930;-91
2023/09/02 01:20:11;;;;;;;;;;;;;;;;;;4952030;28;21670;-91
2023/09/02 01:22:36;;;;;;;;;;;;;;;;;;4962999;28;20432;-90
2023/09/02 01:25:02;;;;;;;;;;;;;;;;;;4947086;28;20013;-90
2023/09/02 01:27:31;;;;;;;;;;;;;;;;;;4948758;28;19937;-91
2023/09/02 01:29:57;;;;;;;;;;;;;;;;;;4959467;28;19934;-91
2023/09/02 01:32:23;;;;;;;;;;;;;;;;;;4962590;28;20536;-91
2023/09/02 01:34:49;;;;;;;;;;;;;;;;;;4947318;28;20338;-90
2023/09/02 01:37:17;;;;;;;;;;;;;;;;;;4944123;28;19926;-89
2023/09/02 01:39:43;;;;;;;;;;;;;;;;;;4950864;28;20009;-90
2023/09/02 01:42:09;;;;;;;;;;;;;;;;;;4948993;28;20020;-91
2023/09/02 01:44:35;;;;;;;;;;;;;;;;;;4966628;28;19936;-92
2023/09/02 01:47:01;;;;;;;;;;;;;;;;;;4966271;28;20029;-91
2023/09/02 01:49:27;;;;;;;;;;;;;;;;;;4946177;28;19977;-90
2023/09/02 01:51:53;;;;;;;;;;;;;;;;;;4961532;28;19981;-89
2023/09/02 01:54:19;;;;;;;;;;;;;;;;;;4965459;28;19930;-90
2023/09/02 01:56:45;;;;;;;;;;;;;;;;;;4962650;28;19930;-89
2023/09/02 01:59:10;;;;;;;;;;;;;;;;;;4947564;28;19942;-89
2023/09/02 02:01:36;;;;;;;;;;;;;;;;;;4944128;28;19952;-90
2023/09/02 02:04:02;;;;;;;;;;;;;;;;;;4962528;28;20417;-89
2023/09/02 02:06:28;;;;;;;;;;;;;;;;;;4942158;28;19930;-90
2023/09/02 02:08:54;;;;;;;;;;;;;;;;;;4957833;28;19941;-90
2023/09/02 02:11:20;;;;;;;;;;;;;;;;;;4958343;28;19930;-90
2023/09/02 02:13:46;;;;;;;;;;;;;;;;;;4940958;28;20012;-90
2023/09/02 02:16:12;;;;;;;;;;;;;;;;;;4955369;28;19957;-90
2023/09/02 02:18:39;;;;;;;;;;;;;;;;;;4947365;28;19930;-90
2023/09/02 02:21:04;;;;;;;;;;;;;;;;;;4962779;28;19937;-88
2023/09/02 02:23:31;;;;;;;;;;;;;;;;;;4937191;28;19935;-90
2023/09/02 02:25:56;;;;;;;;;;;;;;;;;;4963942;28;19922;-90
2023/09/02 02:28:23;;;;;;;;;;;;;;;;;;4947199;28;19926;-90
2023/09/02 02:30:55;;;;;;;;;;;;;;;;;;4943753;28;19927;-89
2023/09/02 02:33:21;;;;;;;;;;;;;;;;;;4964169;28;19926;-89
2023/09/02 02:35:47;;;;;;;;;;;;;;;;;;4949438;28;19930;-90
2023/09/02 02:38:13;;;;;;;;;;;;;;;;;;4949456;28;19933;-89
2023/09/02 02:40:39;;;;;;;;;;;;;;;;;;4941079;29;20417;-91
2023/09/02 02:43:05;;;;;;;;;;;;;;;;;;4944313;28;19934;-89
2023/09/02 02:45:31;;;;;;;;;;;;;;;;;;4946442;28;19937;-90
2023/09/02 02:47:57;;;;;;;;;;;;;;;;;;4944119;28;19934;-89
2023/09/02 02:50:23;;;;;;;;;;;;;;;;;;4945253;28;19926;-90
2023/09/02 02:52:49;;;;;;;;;;;;;;;;;;4958395;28;19930;-90
2023/09/02 02:55:15;;;;;;;;;;;;;;;;;;4948765;28;19930;-90
2023/09/02 02:57:41;;;;;;;;;;;;;;;;;;4963958;28;20260;-90
2023/09/02 03:00:10;;;;;;;;;;;;;;;;;;4949039;28;19953;-88
2023/09/02 03:02:36;;;;;;;;;;;;;;;;;;4961420;28;19937;-89
2023/09/02 03:05:02;;;;;;;;;;;;;;;;;;4949263;28;19930;-89
2023/09/02 03:07:28;;;;;;;;;;;;;;;;;;4943167;28;19934;-90
2023/09/02 03:09:54;;;;;;;;;;;;;;;;;;4946038;28;20402;-89
2023/09/02 03:12:20;;;;;;;;;;;;;;;;;;4950109;28;19981;-89
2023/09/02 03:14:49;;;;;;;;;;;;;;;;;;4967349;28;20029;-90
2023/09/02 03:17:20;;;;;;;;;;;;;;;;;;4950304;28;19930;-90
2023/09/02 03:19:46;;;;;;;;;;;;;;;;;;4961838;28;19934;-90
2023/09/02 03:22:12;;;;;;;;;;;;;;;;;;4943383;28;20302;-90
2023/09/02 03:24:44;;;;;;;;;;;;;;;;;;4950090;28;20017;-90
2023/09/02 03:27:13;;;;;;;;;;;;;;;;;;4952187;28;19945;-89
2023/09/02 03:29:41;;;;;;;;;;;;;;;;;;4963921;28;20304;-90
2023/09/02 03:32:08;;;;;;;;;;;;;;;;;;4963980;28;20016;-91
2023/09/02 03:34:34;;;;;;;;;;;;;;;;;;4943281;28;19930;-91
2023/09/02 03:37:00;;;;;;;;;;;;;;;;;;4962723;28;20028;-90
2023/09/02 03:39:26;;;;;;;;;;;;;;;;;;4967015;28;20337;-90
2023/09/02 03:41:52;;;;;;;;;;;;;;;;;;4945656;28;19984;-90
2023/09/02 03:44:19;;;;;;;;;;;;;;;;;;4947940;28;19937;-90
2023/09/02 03:46:45;;;;;;;;;;;;;;;;;;4964421;28;19990;-90
2023/09/02 03:49:14;;;;;;;;;;;;;;;;;;4949531;28;19930;-89
2023/09/02 03:51:40;;;;;;;;;;;;;;;;;;4965329;28;19976;-90
2023/09/02 03:54:06;;;;;;;;;;;;;;;;;;4955260;28;20397;-90
2023/09/02 03:56:36;;;;;;;;;;;;;;;;;;4947378;28;19941;-90
2023/09/02 03:59:02;;;;;;;;;;;;;;;;;;4971967;28;19918;-89
2023/09/02 04:01:31;;;;;;;;;;;;;;;;;;4953768;28;19969;-89
2023/09/02 04:03:57;;;;;;;;;;;;;;;;;;4950815;28;19969;-88
2023/09/02 04:06:23;;;;;;;;;;;;;;;;;;4949974;28;19926;-89
2023/09/02 04:08:49;;;;;;;;;;;;;;;;;;4953180;28;19918;-89
2023/09/02 04:11:14;;;;;;;;;;;;;;;;;;4967854;28;19957;-89
2023/09/02 04:13:41;;;;;;;;;;;;;;;;;;4966484;28;20310;-90
2023/09/02 04:16:10;;;;;;;;;;;;;;;;;;4946314;28;19926;-89
2023/09/02 04:18:36;;;;;;;;;;;;;;;;;;4967560;28;20273;-89
2023/09/02 04:21:02;;;;;;;;;;;;;;;;;;4970154;28;19930;-88
2023/09/02 04:23:28;;;;;;;;;;;;;;;;;;4944319;28;19977;-88
2023/09/02 04:25:54;;;;;;;;;;;;;;;;;;4964885;28;19976;-89
2023/09/02 04:28:20;;;;;;;;;;;;;;;;;;4965021;28;19930;-89
2023/09/02 04:30:46;;;;;;;;;;;;;;;;;;4948066;28;19937;-90
2023/09/02 04:33:12;;;;;;;;;;;;;;;;;;4951029;28;20297;-90
2023/09/02 04:35:38;;;;;;;;;;;;;;;;;;4984092;28;19930;-89
2023/09/02 04:38:05;;;;;;;;;;;;;;;;;;4943017;28;19933;-89
2023/09/02 04:40:31;;;;;;;;;;;;;;;;;;4940200;28;19945;-89
2023/09/02 04:42:57;;;;;;;;;;;;;;;;;;4956315;28;20557;-90
2023/09/02 04:45:23;;;;;;;;;;;;;;;;;;4941399;28;20398;-89
2023/09/02 04:47:49;;;;;;;;;;;;;;;;;;4941618;28;20648;-89
2023/09/02 04:50:14;;;;;;;;;;;;;;;;;;4956516;28;19972;-89
2023/09/02 04:52:44;;;;;;;;;;;;;;;;;;4957106;28;20470;-89
2023/09/02 04:55:10;;;;;;;;;;;;;;;;;;4977163;28;19928;-88
2023/09/02 04:57:36;;;;;;;;;;;;;;;;;;4950406;28;19930;-89
2023/09/02 05:00:02;;;;;;;;;;;;;;;;;;4948168;28;19934;-89
2023/09/02 05:02:28;;;;;;;;;;;;;;;;;;4945955;28;19926;-89
2023/09/02 05:04:54;;;;;;;;;;;;;;;;;;4960556;28;19984;-89
2023/09/02 05:07:23;;;;;;;;;;;;;;;;;;4951009;28;19926;-89
2023/09/02 05:09:49;;;;;;;;;;;;;;;;;;4951961;28;19957;-89
2023/09/02 05:12:15;;;;;;;;;;;;;;;;;;4967157;28;20798;-89
2023/09/02 05:14:41;;;;;;;;;;;;;;;;;;4954629;28;19937;-89
2023/09/02 05:17:07;;;;;;;;;;;;;;;;;;4967428;28;19926;-89
2023/09/02 05:19:33;;;;;;;;;;;;;;;;;;4955304;28;19930;-89
2023/09/02 05:21:58;;;;;;;;;;;;;;;;;;4965728;28;19926;-89
2023/09/02 05:24:24;;;;;;;;;;;;;;;;;;4946388;28;19930;-88
2023/09/02 05:26:50;;;;;;;;;;;;;;;;;;4950599;28;20000;-89
2023/09/02 05:29:16;;;;;;;;;;;;;;;;;;4952942;28;19985;-89
2023/09/02 05:31:42;;;;;;;;;;;;;;;;;;4965340;28;20414;-90
2023/09/02 05:34:08;;;;;;;;;;;;;;;;;;4941038;28;20408;-90
2023/09/02 05:36:34;;;;;;;;;;;;;;;;;;4962639;28;19929;-89
2023/09/02 05:39:00;;;;;;;;;;;;;;;;;;4945716;28;19929;-89
2023/09/02 05:41:28;;;;;;;;;;;;;;;;;;4943206;28;19976;-91
2023/09/02 05:43:53;;;;;;;;;;;;;;;;;;4948077;28;19926;-89
2023/09/02 05:46:19;;;;;;;;;;;;;;;;;;4961104;28;20233;-90
2023/09/02 05:48:48;;;;;;;;;;;;;;;;;;4970200;28;19926;-90
2023/09/02 05:51:17;;;;;;;;;;;;;;;;;;4943505;28;19966;-92
2023/09/02 05:53:46;;;;;;;;;;;;;;;;;;4963854;28;19942;-91
2023/09/02 05:56:12;;;;;;;;;;;;;;;;;;4949458;28;19934;-89
2023/09/02 05:58:38;;;;;;;;;;;;;;;;;;4962389;28;20021;-90
2023/09/02 06:01:04;;;;;;;;;;;;;;;;;;4964555;28;20032;-90
2023/09/02 06:03:30;;;;;;;;;;;;;;;;;;4945141;28;20353;-88
2023/09/02 06:05:56;;;;;;;;;;;;;;;;;;4952114;28;19930;-90
2023/09/02 06:08:22;;;;;;;;;;;;;;;;;;4961949;28;20066;-92
2023/09/02 06:10:48;;;;;;;;;;;;;;;;;;4946087;28;21400;-91
2023/09/02 06:13:13;;;;;;;;;;;;;;;;;;4946179;28;20024;-92
2023/09/02 06:15:43;;;;;;;;;;;;;;;;;;4943866;28;19925;-91
2023/09/02 06:18:09;;;;;;;;;;;;;;;;;;4951771;28;19937;-92
2023/09/02 06:20:38;;;;;;;;;;;;;;;;;;4948771;28;19933;-91
2023/09/02 06:23:04;;;;;;;;;;;;;;;;;;4945545;28;19926;-88
2023/09/02 06:25:29;;;;;;;;;;;;;;;;;;4942374;28;19934;-91
2023/09/02 06:27:55;;;;;;;;;;;;;;;;;;4965528;28;20926;-90
2023/09/02 06:30:21;;;;;;;;;;;;;;;;;;4949118;28;19929;-91
2023/09/02 06:32:47;;;;;;;;;;;;;;;;;;4945348;28;19942;-87
2023/09/02 06:35:16;;;;;;;;;;;;;;;;;;4943416;28;19934;-89
2023/09/02 06:37:42;;;;;;;;;;;;;;;;;;4975865;28;20062;-87
2023/09/02 06:40:08;;;;;;;;;;;;;;;;;;4963273;28;20004;-87
2023/09/02 06:42:34;;;;;;;;;;;;;;;;;;4978091;28;20416;-87
2023/09/02 06:45:00;;;;;;;;;;;;;;;;;;4940527;28;20583;-86
2023/09/02 06:47:26;;;;;;;;;;;;;;;;;;4958045;28;19930;-89
2023/09/02 06:49:52;;;;;;;;;;;;;;;;;;4969634;28;19929;-87
2023/09/02 06:52:18;;;;;;;;;;;;;;;;;;4967659;28;20356;-88
2023/09/02 06:54:44;;;;;;;;;;;;;;;;;;4944711;28;19934;-87
2023/09/02 06:57:10;;;;;;;;;;;;;;;;;;4966021;28;19936;-88
2023/09/02 06:59:39;;;;;;;;;;;;;;;;;;4961912;28;20353;-88
2023/09/02 07:02:04;;;;;;;;;;;;;;;;;;4965057;28;19976;-88
2023/09/02 07:04:31;;;;;;;;;;;;;;;;;;4963216;28;20370;-88
2023/09/02 07:06:57;;;;;;;;;;;;;;;;;;4964270;28;19944;-88
2023/09/02 07:09:22;;;;;;;;;;;;;;;;;;4960725;28;19930;-88
2023/09/02 07:11:49;;;;;;;;;;;;;;;;;;4944338;28;19934;-88
2023/09/02 07:14:14;;;;;;;;;;;;;;;;;;4979901;28;20398;-88
2023/09/02 07:16:40;;;;;;;;;;;;;;;;;;4961210;28;19957;-87
2023/09/02 07:19:06;;;;;;;;;;;;;;;;;;4946238;28;20349;-87
2023/09/02 07:21:32;;;;;;;;;;;;;;;;;;4962280;28;19929;-87
2023/09/02 07:23:58;;;;;;;;;;;;;;;;;;4962928;28;19926;-87
2023/09/02 07:26:27;;;;;;;;;;;;;;;;;;4960980;28;19934;-88
2023/09/02 07:28:53;;;;;;;;;;;;;;;;;;4964856;28;20333;-87
2023/09/02 07:31:19;;;;;;;;;;;;;;;;;;4959821;28;19930;-88
2023/09/02 07:33:45;;;;;;;;;;;;;;;;;;4964639;28;21479;-87
2023/09/02 07:36:10;;;;;;;;;;;;;;;;;;4961646;28;20012;-87
2023/09/02 07:38:36;;;;;;;;;;;;;;;;;;4960867;28;19929;-87
2023/09/02 07:41:02;;;;;;;;;;;;;;;;;;4962558;28;19972;-87
2023/09/02 07:43:28;;;;;;;;;;;;;;;;;;4964632;28;19930;-87
2023/09/02 07:45:55;;;;;;;;;;;;;;;;;;4963614;28;20429;-88
2023/09/02 07:48:21;;;;;;;;;;;;;;;;;;4964912;28;20024;-87
2023/09/02 07:50:47;;;;;;;;;;;;;;;;;;4947539;28;20044;-88
2023/09/02 07:53:12;;;;;;;;;;;;;;;;;;4947590;28;19938;-87
2023/09/02 07:55:41;;;;;;;;;;;;;;;;;;4959860;28;19969;-87
2023/09/02 07:58:07;;;;;;;;;;;;;;;;;;4972291;28;19937;-87
2023/09/02 08:00:33;;;;;;;;;;;;;;;;;;4944051;28;19926;-87
2023/09/02 08:05:46;;;;;;;;;;;;;;;;;;4948082;28;19930;-87
2023/09/02 08:08:13;;;;;;;;;;;;;;;;;;4945968;28;19941;-88
2023/09/02 08:10:39;;;;;;;;;;;;;;;;;;4961965;28;19926;-90
2023/09/02 08:13:05;;;;;;;;;;;;;;;;;;4946354;28;19937;-88
2023/09/02 08:15:31;;;;;;;;;;;;;;;;;;4953333;28;19933;-88
2023/09/02 08:17:57;;;;;;;;;;;;;;;;;;4963605;28;19930;-87
2023/09/02 08:20:23;;;;;;;;;;;;;;;;;;4962461;28;19980;-88
2023/09/02 08:22:49;;;;;;;;;;;;;;;;;;4969461;28;20357;-86
2023/09/02 08:25:15;;;;;;;;;;;;;;;;;;4940539;28;19960;-87
2023/09/02 08:27:41;;;;;;;;;;;;;;;;;;4943943;28;19930;-88
2023/09/02 08:30:07;;;;;;;;;;;;;;;;;;4963600;28;20021;-87
2023/09/02 08:32:32;;;;;;;;;;;;;;;;;;4953304;28;19940;-87
2023/09/02 08:34:58;;;;;;;;;;;;;;;;;;4956276;28;19933;-88
2023/09/02 08:37:24;;;;;;;;;;;;;;;;;;4941397;28;20069;-87
2023/09/02 08:39:53;;;;;;;;;;;;;;;;;;4961062;28;20378;-88
2023/09/02 08:42:22;;;;;;;;;;;;;;;;;;4962685;28;20310;-87
2023/09/02 08:44:48;;;;;;;;;;;;;;;;;;4959311;28;20380;-86
2023/09/02 08:47:14;;;;;;;;;;;;;;;;;;4965828;28;19932;-87
2023/09/02 08:49:40;;;;;;;;;;;;;;;;;;4941091;28;20305;-87
2023/09/02 08:52:07;;;;;;;;;;;;;;;;;;4940920;28;19926;-87
2023/09/02 08:54:34;;;;;;;;;;;;;;;;;;4943125;28;19941;-87
2023/09/02 08:57:03;;;;;;;;;;;;;;;;;;4956764;28;19933;-87
2023/09/02 08:59:29;;;;;;;;;;;;;;;;;;4944066;28;19934;-86
2023/09/02 09:01:55;;;;;;;;;;;;;;;;;;4958168;28;20436;-87
2023/09/02 09:04:21;;;;;;;;;;;;;;;;;;4960856;28;19975;-86
2023/09/02 09:06:47;;;;;;;;;;;;;;;;;;4963268;28;20303;-88
2023/09/02 09:09:13;;;;;;;;;;;;;;;;;;4960689;28;20003;-88
2023/09/02 09:11:39;;;;;;;;;;;;;;;;;;4947358;28;20012;-88
2023/09/02 09:14:05;;;;;;;;;;;;;;;;;;4947079;28;19952;-87
2023/09/02 09:16:33;;;;;;;;;;;;;;;;;;4946805;28;19929;-88
2023/09/02 09:18:59;;;;;;;;;;;;;;;;;;4966869;28;19941;-87
2023/09/02 09:21:28;;;;;;;;;;;;;;;;;;4952310;28;19930;-87
2023/09/02 09:23:54;;;;;;;;;;;;;;;;;;4967102;28;20861;-87
2023/09/02 09:26:19;;;;;;;;;;;;;;;;;;4962416;28;19941;-87
2023/09/02 09:28:45;;;;;;;;;;;;;;;;;;4962922;28;20503;-87
2023/09/02 09:31:11;;;;;;;;;;;;;;;;;;4959433;28;19979;-88
2023/09/02 09:33:37;;;;;;;;;;;;;;;;;;4954677;28;20020;-88
2023/09/02 09:36:03;;;;;;;;;;;;;;;;;;4972484;28;19936;-88
2023/09/02 09:38:29;;;;;;;;;;;;;;;;;;4986057;28;20000;-87
2023/09/02 09:40:55;;;;;;;;;;;;;;;;;;4972703;28;20025;-87
2023/09/02 09:43:27;;;;;;;;;;;;;;;;;;4967622;28;19930;-87
2023/09/02 09:45:53;;;;;;;;;;;;;;;;;;4948578;28;20368;-88
2023/09/02 09:48:19;;;;;;;;;;;;;;;;;;4946604;28;19964;-87
2023/09/02 09:50:51;;;;;;;;;;;;;;;;;;4948442;28;19930;-87
2023/09/02 09:53:17;;;;;;;;;;;;;;;;;;4967936;28;20082;-87
2023/09/02 09:55:43;;;;;;;;;;;;;;;;;;4951240;28;19930;-88
2023/09/02 09:58:09;;;;;;;;;;;;;;;;;;4961969;28;20021;-88
2023/09/02 10:00:35;;;;;;;;;;;;;;;;;;4964005;28;20394;-88
2023/09/02 10:03:08;;;;;;;;;;;;;;;;;;4962454;28;20013;-86
2023/09/02 10:05:34;;;;;;;;;;;;;;;;;;4962633;28;19964;-87
2023/09/02 10:08:00;;;;;;;;;;;;;;;;;;4953414;28;19933;-87
2023/09/02 10:10:27;;;;;;;;;;;;;;;;;;4959962;28;19929;-86
2023/09/02 10:12:53;;;;;;;;;;;;;;;;;;4964124;28;19981;-87
2023/09/02 10:15:24;;;;;;;;;;;;;;;;;;4965082;28;19984;-87
2023/09/02 10:17:50;;;;;;;;;;;;;;;;;;4960109;28;20449;-94
2023/09/02 10:20:16;;;;;;;;;;;;;;;;;;4969092;28;20013;-88
2023/09/02 10:22:42;;;;;;;;;;;;;;;;;;4949293;28;19933;-88
2023/09/02 10:25:10;;;;;;;;;;;;;;;;;;4960947;28;20028;-88
2023/09/02 10:27:35;;;;;;;;;;;;;;;;;;4966074;28;19965;-89
2023/09/02 10:30:01;;;;;;;;;;;;;;;;;;4965125;28;19961;-88
2023/09/02 10:32:27;;;;;;;;;;;;;;;;;;4951393;28;20054;-89
2023/09/02 10:34:53;;;;;;;;;;;;;;;;;;4983525;28;19925;-88
2023/09/02 10:37:20;;;;;;;;;;;;;;;;;;4964751;28;20377;-88
2023/09/02 10:39:46;;;;;;;;;;;;;;;;;;4965198;28;19955;-88
2023/09/02 10:42:12;;;;;;;;;;;;;;;;;;4949752;28;19961;-88
2023/09/02 10:44:38;;;;;;;;;;;;;;;;;;4965517;28;19980;-89
2023/09/02 10:47:04;;;;;;;;;;;;;;;;;;4969381;28;20158;-88
2023/09/02 10:49:30;;;;;;;;;;;;;;;;;;4968480;28;19934;-86
2023/09/02 10:51:55;;;;;;;;;;;;;;;;;;4966782;28;19977;-85
2023/09/02 10:54:21;;;;;;;;;;;;;;;;;;4949818;28;19928;-86
2023/09/02 10:56:47;;;;;;;;;;;;;;;;;;4943081;28;19933;-86
2023/09/02 10:59:13;;;;;;;;;;;;;;;;;;4978561;28;20382;-86
2023/09/02 11:01:39;;;;;;;;;;;;;;;;;;4973849;28;19933;-86
2023/09/02 11:04:05;;;;;;;;;;;;;;;;;;4942072;28;19940;-86
2023/09/02 11:06:31;;;;;;;;;;;;;;;;;;4958379;28;19926;-86
2023/09/02 11:08:57;;;;;;;;;;;;;;;;;;4960632;28;20050;-85
2023/09/02 11:11:23;;;;;;;;;;;;;;;;;;4962380;28;19996;-86
2023/09/02 11:13:49;;;;;;;;;;;;;;;;;;4948329;28;19930;-86
2023/09/02 11:16:15;;;;;;;;;;;;;;;;;;4959114;28;19930;-86
2023/09/02 11:18:41;;;;;;;;;;;;;;;;;;4945989;28;19933;-86
2023/09/02 11:21:07;;;;;;;;;;;;;;;;;;4960668;28;20420;-86
2023/09/02 11:23:33;;;;;;;;;;;;;;;;;;4962751;28;20349;-85
2023/09/02 11:25:59;;;;;;;;;;;;;;;;;;4964373;28;20406;-85
2023/09/02 11:28:28;;;;;;;;;;;;;;;;;;4944884;28;19938;-85
2023/09/02 11:30:53;;;;;;;;;;;;;;;;;;4964084;28;19930;-86
2023/09/02 11:33:19;;;;;;;;;;;;;;;;;;4959868;28;19934;-86
2023/09/02 11:35:45;;;;;;;;;;;;;;;;;;4942843;28;19973;-86
2023/09/02 11:38:11;;;;;;;;;;;;;;;;;;4956020;28;20029;-86
2023/09/02 11:40:37;;;;;;;;;;;;;;;;;;4940971;28;19926;-86
2023/09/02 11:43:03;;;;;;;;;;;;;;;;;;4972459;28;20294;-85
2023/09/02 11:45:29;;;;;;;;;;;;;;;;;;4951192;28;19934;-86
2023/09/02 11:47:55;;;;;;;;;;;;;;;;;;4939225;28;19963;-86
2023/09/02 11:50:21;;;;;;;;;;;;;;;;;;4951251;28;19967;-87
2023/09/02 11:52:47;;;;;;;;;;;;;;;;;;4970084;28;20395;-86
2023/09/02 11:55:13;;;;;;;;;;;;;;;;;;4955179;28;20650;-86
2023/09/02 11:57:39;;;;;;;;;;;;;;;;;;4955127;28;19930;-86
2023/09/02 12:00:06;;;;;;;;;;;;;;;;;;4958181;28;20005;-86
2023/09/02 12:02:32;;;;;;;;;;;;;;;;;;4961097;28;19949;-86
2023/09/02 12:04:58;;;;;;;;;;;;;;;;;;4944009;28;19929;-86
2023/09/02 12:07:23;;;;;;;;;;;;;;;;;;4958454;28;19930;-86
2023/09/02 12:09:49;;;;;;;;;;;;;;;;;;4957549;28;19930;-86
2023/09/02 12:12:15;;;;;;;;;;;;;;;;;;4940161;28;19990;-84
2023/09/02 12:14:41;;;;;;;;;;;;;;;;;;4941185;28;20442;-87
2023/09/02 12:17:16;;;;;;;;;;;;;;;;;;4956686;28;19930;-88
2023/09/02 12:19:55;;;;;;;;;;;;;;;;;;4940786;28;19968;-87
2023/09/02 12:25:13;;;;;;;;;;;;;;;;;;4950705;28;19926;-87
2023/09/02 12:28:00;;;;;;;;;;;;;;;;;;4942383;28;20012;-90
2023/09/02 12:30:36;;;;;;;;;;;;;;;;;;;;;
2023/09/02 12:36:13;;;;;;;;;;;;;;;;;;4959726;28;19934;-86
2023/09/02 12:38:48;;;;;;;;;;;;;;;;;;4941042;28;19930;-86
2023/09/02 12:47:09;;;;;;;;;;;;;;;;;;4953156;28;19934;-88
2023/09/02 12:49:35;;;;;;;;;;;;;;;;;;4952565;28;19941;-88
2023/09/02 12:52:02;;;;;;;;;;;;;;;;;;4937520;28;20458;-87
2023/09/02 12:54:28;;;;;;;;;;;;;;;;;;4959640;28;20173;-87
2023/09/02 12:56:54;;;;;;;;;;;;;;;;;;4945698;28;19936;-89
2023/09/02 12:59:20;;;;;;;;;;;;;;;;;;4963618;28;19934;-87
2023/09/02 13:01:46;;;;;;;;;;;;;;;;;;4963517;28;20434;-88
2023/09/02 13:04:12;;;;;;;;;;;;;;;;;;4948602;28;20263;-89
2023/09/02 13:06:40;;;;;;;;;;;;;;;;;;4965162;28;20211;-87
2023/09/02 13:09:06;;;;;;;;;;;;;;;;;;4962167;28;20260;-86
2023/09/02 13:11:39;;;;;;;;;;;;;;;;;;4963923;28;19981;-87
2023/09/02 13:14:06;;;;;;;;;;;;;;;;;;4947371;28;19930;-88
2023/09/02 13:16:35;;;;;;;;;;;;;;;;;;4947839;28;19930;-87
2023/09/02 13:19:01;;;;;;;;;;;;;;;;;;4961568;28;19941;-88
2023/09/02 13:21:26;;;;;;;;;;;;;;;;;;4963039;28;20325;-88
2023/09/02 13:23:52;;;;;;;;;;;;;;;;;;4946318;28;19930;-87
2023/09/02 13:26:18;;;;;;;;;;;;;;;;;;4959598;28;20428;-87
2023/09/02 13:28:44;;;;;;;;;;;;;;;;;;4961072;28;19936;-88
2023/09/02 13:31:10;;;;;;;;;;;;;;;;;;4963552;28;20670;-88
2023/09/02 13:33:36;;;;;;;;;;;;;;;;;;4944241;28;20453;-87
2023/09/02 13:36:02;;;;;;;;;;;;;;;;;;4961252;28;19926;-86
2023/09/02 13:38:28;;;;;;;;;;;;;;;;;;4957961;28;19930;-86
2023/09/02 13:40:54;;;;;;;;;;;;;;;;;;4962997;28;19934;-86
2023/09/02 13:43:20;;;;;;;;;;;;;;;;;;4961077;28;19961;-85
2023/09/02 13:45:47;;;;;;;;;;;;;;;;;;4959304;28;19930;-85
2023/09/02 13:48:13;;;;;;;;;;;;;;;;;;4958248;28;20017;-85
2023/09/02 13:50:39;;;;;;;;;;;;;;;;;;4958158;28;20430;-85
2023/09/02 13:53:05;;;;;;;;;;;;;;;;;;4965587;28;20382;-85
2023/09/02 13:55:31;;;;;;;;;;;;;;;;;;4962923;28;19926;-85
2023/09/02 13:57:57;;;;;;;;;;;;;;;;;;4957742;28;19941;-85
2023/09/02 14:00:22;;;;;;;;;;;;;;;;;;4961113;28;20593;-85
2023/09/02 14:02:48;;;;;;;;;;;;;;;;;;4960027;28;19930;-85
2023/09/02 14:05:14;;;;;;;;;;;;;;;;;;4960996;28;19980;-86
2023/09/02 14:07:40;;;;;;;;;;;;;;;;;;4959672;28;19972;-85
2023/09/02 14:10:06;;;;;;;;;;;;;;;;;;4959671;28;20097;-85
2023/09/02 14:12:32;;;;;;;;;;;;;;;;;;4957824;28;19929;-85
2023/09/02 14:14:58;;;;;;;;;;;;;;;;;;4946581;28;19922;-86
2023/09/02 14:17:24;;;;;;;;;;;;;;;;;;4962568;28;19956;-85
2023/09/02 14:19:50;;;;;;;;;;;;;;;;;;4958129;28;20009;-85
2023/09/02 14:22:16;;;;;;;;;;;;;;;;;;4962245;28;20018;-85
2023/09/02 14:24:42;;;;;;;;;;;;;;;;;;4962432;28;20445;-85
2023/09/02 14:27:08;;;;;;;;;;;;;;;;;;4966680;28;20259;-86
2023/09/02 14:29:34;;;;;;;;;;;;;;;;;;4950509;28;19988;-85
2023/09/02 14:32:00;;;;;;;;;;;;;;;;;;4967303;28;19969;-86
2023/09/02 14:34:26;;;;;;;;;;;;;;;;;;4967621;28;19929;-85
2023/09/02 14:36:52;;;;;;;;;;;;;;;;;;4963483;28;19976;-85
2023/09/02 14:39:18;;;;;;;;;;;;;;;;;;4949022;28;20465;-85
2023/09/02 14:41:44;;;;;;;;;;;;;;;;;;4948207;28;19941;-85
2023/09/02 14:44:10;;;;;;;;;;;;;;;;;;4949890;28;19980;-85
2023/09/02 14:46:36;;;;;;;;;;;;;;;;;;4948666;28;19933;-85
2023/09/02 14:49:02;;;;;;;;;;;;;;;;;;4969360;28;19976;-86
2023/09/02 14:51:28;;;;;;;;;;;;;;;;;;4955624;28;19975;-85
2023/09/02 14:53:54;;;;;;;;;;;;;;;;;;4987513;28;20310;-86
2023/09/02 14:56:20;;;;;;;;;;;;;;;;;;4961774;28;19941;-85
2023/09/02 14:58:45;;;;;;;;;;;;;;;;;;4949615;28;20282;-85
2023/09/02 15:01:11;;;;;;;;;;;;;;;;;;4969949;28;20016;-85
2023/09/02 15:03:38;;;;;;;;;;;;;;;;;;4952661;28;20393;-85
2023/09/02 15:06:04;;;;;;;;;;;;;;;;;;4981437;28;19963;-85
2023/09/02 15:08:30;;;;;;;;;;;;;;;;;;4965529;28;19930;-85
2023/09/02 15:10:56;;;;;;;;;;;;;;;;;;4970570;28;19936;-86
2023/09/02 15:13:22;;;;;;;;;;;;;;;;;;4976508;28;20282;-85
2023/09/02 15:15:48;;;;;;;;;;;;;;;;;;4953431;28;20021;-85
2023/09/02 15:18:14;;;;;;;;;;;;;;;;;;4972859;28;19981;-85
2023/09/02 15:20:40;;;;;;;;;;;;;;;;;;4968082;28;19936;-86
2023/09/02 15:23:06;;;;;;;;;;;;;;;;;;4949244;28;19980;-85
2023/09/02 15:25:32;;;;;;;;;;;;;;;;;;4977576;28;20032;-85
2023/09/02 15:27:57;;;;;;;;;;;;;;;;;;4970807;28;19936;-86
2023/09/02 15:30:23;;;;;;;;;;;;;;;;;;4966242;28;19936;-85
2023/09/02 15:32:49;;;;;;;;;;;;;;;;;;4969100;28;19936;-86
2023/09/02 15:35:15;;;;;;;;;;;;;;;;;;4967354;28;19936;-86
2023/09/02 15:37:41;;;;;;;;;;;;;;;;;;4953207;28;19933;-86
2023/09/02 15:40:08;;;;;;;;;;;;;;;;;;4969843;28;19987;-85
2023/09/02 15:42:34;;;;;;;;;;;;;;;;;;4958948;28;19929;-86
2023/09/02 15:45:00;;;;;;;;;;;;;;;;;;4940131;28;19930;-85
2023/09/02 15:47:25;;;;;;;;;;;;;;;;;;4965667;28;20346;-85
2023/09/02 15:49:51;;;;;;;;;;;;;;;;;;4960783;28;19933;-86
2023/09/02 15:52:17;;;;;;;;;;;;;;;;;;4962340;28;19941;-86
2023/09/02 15:54:43;;;;;;;;;;;;;;;;;;4970112;28;20282;-85
2023/09/02 15:57:11;;;;;;;;;;;;;;;;;;4970059;28;19944;-86
2023/09/02 15:59:37;;;;;;;;;;;;;;;;;;4969645;28;19965;-86
2023/09/02 16:02:03;;;;;;;;;;;;;;;;;;4946435;28;19977;-86
2023/09/02 16:04:29;;;;;;;;;;;;;;;;;;4951725;28;20009;-85
2023/09/02 16:06:55;;;;;;;;;;;;;;;;;;4950420;28;19997;-86
2023/09/02 16:09:20;;;;;;;;;;;;;;;;;;4969599;28;20018;-86
2023/09/02 16:11:48;;;;;;;;;;;;;;;;;;4968117;28;19930;-85
2023/09/02 16:14:14;;;;;;;;;;;;;;;;;;4966446;28;19933;-85
2023/09/02 16:16:40;;;;;;;;;;;;;;;;;;4950959;28;19930;-85
2023/09/02 16:19:06;;;;;;;;;;;;;;;;;;4967347;28;19957;-85
2023/09/02 16:21:32;;;;;;;;;;;;;;;;;;4958805;28;19965;-86
2023/09/02 16:23:58;;;;;;;;;;;;;;;;;;4954731;28;20466;-86
2023/09/02 16:26:24;;;;;;;;;;;;;;;;;;4966858;28;19934;-85
2023/09/02 16:28:50;;;;;;;;;;;;;;;;;;4966072;28;19930;-85
2023/09/02 16:31:15;;;;;;;;;;;;;;;;;;4950756;28;19953;-86
2023/09/02 16:33:41;;;;;;;;;;;;;;;;;;4949763;28;19930;-85
2023/09/02 16:36:07;;;;;;;;;;;;;;;;;;4949244;28;19933;-85
2023/09/02 16:38:33;;;;;;;;;;;;;;;;;;4966799;28;19929;-86
2023/09/02 16:40:59;;;;;;;;;;;;;;;;;;4966489;28;20025;-85
2023/09/02 16:43:25;;;;;;;;;;;;;;;;;;4965659;28;19928;-85
2023/09/02 16:45:51;;;;;;;;;;;;;;;;;;4969015;28;20038;-85
2023/09/02 16:48:17;;;;;;;;;;;;;;;;;;4955718;28;19926;-86
2023/09/02 16:50:43;;;;;;;;;;;;;;;;;;4950146;28;19929;-86
2023/09/02 16:53:09;;;;;;;;;;;;;;;;;;4982178;28;19930;-85
2023/09/02 16:55:35;;;;;;;;;;;;;;;;;;4967132;28;19937;-86